createdAt,value
2019-01-27T00:00:18.582Z,1.30
2019-01-27T00:02:46.846Z,1.27
2019-01-27T00:05:15.118Z,1.87
2019-01-27T00:07:43.479Z,1.50
2019-01-27T00:10:12.301Z,1.63
2019-01-27T00:12:40.597Z,1.93
2019-01-27T00:15:10.434Z,0.60
2019-01-27T00:17:38.742Z,0.93
2019-01-27T00:20:18.352Z,1.40
2019-01-27T00:22:46.669Z,0.93
2019-01-27T00:25:15.008Z,0.80
2019-01-27T00:27:43.269Z,0.70
2019-01-27T00:30:22.503Z,0.80
2019-01-27T00:32:50.847Z,0.70
2019-01-27T00:35:19.145Z,0.90
2019-01-27T00:37:47.472Z,1.00
2019-01-27T00:40:16.852Z,1.20
2019-01-27T00:42:45.134Z,1.00
2019-01-27T00:45:18.232Z,1.07
2019-01-27T00:47:46.496Z,0.77
2019-01-27T00:50:16.589Z,0.70
2019-01-27T00:52:44.932Z,1.13
2019-01-27T00:55:21.730Z,0.80
2019-01-27T00:57:49.995Z,1.03
2019-01-27T01:00:26.108Z,1.20
2019-01-27T01:02:54.358Z,0.70
2019-01-27T01:05:22.883Z,0.60
2019-01-27T01:07:51.144Z,0.70
2019-01-27T01:10:23.167Z,0.93
2019-01-27T01:12:51.449Z,2.40
2019-01-27T01:15:19.803Z,1.33
2019-01-27T01:17:48.117Z,0.80
2019-01-27T01:20:20.578Z,1.07
2019-01-27T01:22:50.176Z,1.40
2019-01-27T01:25:23.304Z,2.80
2019-01-27T01:27:51.732Z,1.33
2019-01-27T01:30:30.614Z,0.70
2019-01-27T01:32:58.898Z,1.00
2019-01-27T01:35:27.156Z,1.53
2019-01-27T01:37:55.438Z,1.17
2019-01-27T01:40:23.730Z,0.70
2019-01-27T01:42:52.048Z,1.37
2019-01-27T01:45:28.372Z,1.17
2019-01-27T01:47:56.656Z,0.97
2019-01-27T01:50:24.927Z,1.03
2019-01-27T01:52:53.222Z,1.10
2019-01-27T01:55:21.463Z,1.07
2019-01-27T01:57:49.764Z,1.10
2019-01-27T02:00:22.474Z,1.33
2019-01-27T02:02:50.753Z,1.10
2019-01-27T02:05:19.713Z,2.13
2019-01-27T02:07:47.979Z,0.73
2019-01-27T02:10:20.852Z,0.90
2019-01-27T02:12:49.212Z,1.00
2019-01-27T02:15:29.462Z,0.90
2019-01-27T02:17:57.807Z,1.07
2019-01-27T02:20:26.059Z,0.60
2019-01-27T02:22:54.383Z,1.20
2019-01-27T02:25:22.684Z,1.13
2019-01-27T02:27:51.039Z,3.23
2019-01-27T02:30:19.545Z,0.80
2019-01-27T02:32:47.840Z,1.87
2019-01-27T02:35:16.103Z,1.57
2019-01-27T02:37:44.356Z,0.80
2019-01-27T02:40:12.646Z,1.33
2019-01-27T02:42:40.982Z,0.60
2019-01-27T02:45:19.502Z,1.00
2019-01-27T02:47:47.753Z,0.60
2019-01-27T02:50:16.029Z,0.60
2019-01-27T02:52:44.300Z,0.60
2019-01-27T02:55:12.593Z,0.87
2019-01-27T02:57:40.837Z,0.70
2019-01-27T03:00:15.137Z,0.70
2019-01-27T03:02:43.396Z,0.50
2019-01-27T03:05:13.304Z,0.50
2019-01-27T03:07:41.559Z,0.57
2019-01-27T03:10:15.042Z,1.43
2019-01-27T03:12:43.304Z,0.40
2019-01-27T03:15:12.054Z,0.63
2019-01-27T03:17:40.305Z,0.47
2019-01-27T03:20:13.286Z,0.57
2019-01-27T03:22:41.535Z,0.63
2019-01-27T03:25:12.747Z,0.43
2019-01-27T03:27:41.042Z,0.47
2019-01-27T03:30:12.622Z,0.40
2019-01-27T03:32:40.882Z,1.07
2019-01-27T03:35:10.478Z,1.73
2019-01-27T03:37:38.720Z,1.27
2019-01-27T03:40:10.359Z,0.20
2019-01-27T03:42:38.657Z,0.40
2019-01-27T03:45:10.477Z,0.30
2019-01-27T03:47:38.717Z,0.30
2019-01-27T03:50:10.237Z,0.20
2019-01-27T03:52:38.521Z,0.30
2019-01-27T03:55:10.020Z,0.20
2019-01-27T03:57:38.305Z,0.20
2019-01-27T04:00:09.813Z,0.20
2019-01-27T04:02:38.078Z,0.30
2019-01-27T04:05:06.357Z,0.50
2019-01-27T04:07:34.645Z,0.30
2019-01-27T04:10:02.894Z,0.30
2019-01-27T04:12:31.157Z,0.43
2019-01-27T04:14:59.506Z,0.63
2019-01-27T04:17:27.795Z,1.47
2019-01-27T04:19:56.033Z,0.33
2019-01-27T04:22:24.311Z,0.23
2019-01-27T04:24:52.594Z,0.30
2019-01-27T04:27:20.927Z,0.17
2019-01-27T04:29:49.199Z,0.10
2019-01-27T04:32:17.465Z,0.40
2019-01-27T04:34:45.738Z,0.20
2019-01-27T04:37:13.997Z,0.40
2019-01-27T04:39:42.274Z,0.20
2019-01-27T04:42:10.530Z,0.70
2019-01-27T04:44:38.816Z,0.27
2019-01-27T04:47:07.072Z,0.70
2019-01-27T04:49:35.395Z,0.33
2019-01-27T04:52:03.662Z,0.40
2019-01-27T04:54:31.947Z,0.30
2019-01-27T04:57:00.252Z,0.40
2019-01-27T04:59:28.518Z,0.40
2019-01-27T05:01:56.789Z,0.30
2019-01-27T05:04:26.687Z,0.40
2019-01-27T05:06:54.980Z,0.47
2019-01-27T05:09:23.270Z,0.40
2019-01-27T05:11:51.527Z,0.40
2019-01-27T05:14:19.820Z,1.93
2019-01-27T05:16:48.120Z,0.53
2019-01-27T05:19:16.378Z,0.77
2019-01-27T05:21:44.662Z,0.70
2019-01-27T05:24:12.978Z,0.50
2019-01-27T05:26:41.249Z,0.37
2019-01-27T05:29:09.532Z,0.50
2019-01-27T05:31:37.816Z,0.50
2019-01-27T05:34:06.101Z,0.40
2019-01-27T05:36:34.414Z,0.50
2019-01-27T05:39:02.736Z,0.57
2019-01-27T05:41:31.019Z,0.40
2019-01-27T05:43:59.397Z,0.40
2019-01-27T05:46:27.685Z,2.40
2019-01-27T05:48:55.936Z,0.93
2019-01-27T05:51:24.214Z,0.20
2019-01-27T05:53:52.489Z,0.70
2019-01-27T05:56:20.947Z,0.30
2019-01-27T05:58:49.203Z,0.40
2019-01-27T06:01:17.489Z,0.30
2019-01-27T06:03:45.764Z,0.37
2019-01-27T06:06:14.024Z,1.60
2019-01-27T06:08:42.318Z,0.50
2019-01-27T06:11:10.584Z,2.33
2019-01-27T06:13:38.874Z,0.33
2019-01-27T06:16:07.107Z,0.30
2019-01-27T06:18:35.410Z,0.83
2019-01-27T06:21:03.684Z,0.60
2019-01-27T06:23:31.963Z,0.20
2019-01-27T06:26:00.232Z,0.43
2019-01-27T06:28:28.539Z,0.20
2019-01-27T06:30:56.813Z,0.93
2019-01-27T06:33:26.762Z,1.17
2019-01-27T06:35:55.042Z,0.43
2019-01-27T06:38:23.382Z,0.40
2019-01-27T06:40:51.643Z,1.07
2019-01-27T06:43:19.920Z,0.37
2019-01-27T06:45:48.195Z,0.53
2019-01-27T06:48:16.543Z,0.37
2019-01-27T06:50:44.792Z,0.40
2019-01-27T06:53:13.052Z,0.53
2019-01-27T06:55:41.461Z,0.30
2019-01-27T06:58:10.042Z,0.30
2019-01-27T07:00:45.974Z,0.40
2019-01-27T07:03:24.590Z,0.33
2019-01-27T07:05:57.418Z,2.40
2019-01-27T07:08:38.797Z,0.23
2019-01-27T07:11:08.734Z,1.07
2019-01-27T07:13:54.922Z,0.73
2019-01-27T07:16:27.525Z,0.40
2019-01-27T07:19:09.263Z,1.33
2019-01-27T07:21:55.235Z,2.37
2019-01-27T07:24:25.132Z,0.50
2019-01-27T07:27:11.366Z,0.40
2019-01-27T07:29:47.010Z,0.40
2019-01-27T07:32:19.885Z,0.50
2019-01-27T07:34:52.790Z,0.40
2019-01-27T07:37:28.387Z,0.30
2019-01-27T07:40:07.004Z,0.63
2019-01-27T07:42:54.614Z,0.30
2019-01-27T07:45:27.149Z,0.40
2019-01-27T07:48:08.828Z,0.30
2019-01-27T07:50:41.498Z,3.27
2019-01-27T07:53:14.533Z,0.50
2019-01-27T07:55:44.430Z,1.77
2019-01-27T07:58:23.397Z,0.70
2019-01-27T08:01:05.098Z,0.50
2019-01-27T08:03:40.928Z,0.43
2019-01-27T08:06:16.625Z,1.07
2019-01-27T08:08:55.453Z,1.10
2019-01-27T08:11:25.362Z,0.43
2019-01-27T08:13:58.108Z,0.73
2019-01-27T08:16:40.158Z,0.67
2019-01-27T08:19:10.106Z,0.87
2019-01-27T08:21:54.823Z,0.80
2019-01-27T08:24:40.685Z,1.53
2019-01-27T08:27:16.550Z,2.93
2019-01-27T08:29:46.475Z,1.53
2019-01-27T08:32:16.473Z,0.80
2019-01-27T08:34:55.470Z,1.67
2019-01-27T08:37:34.538Z,1.33
2019-01-27T08:40:07.567Z,1.87
2019-01-27T08:42:55.337Z,0.70
2019-01-27T08:45:28.248Z,3.57
2019-01-27T08:47:56.503Z,0.93
2019-01-27T08:50:24.790Z,2.63
2019-01-27T08:52:53.058Z,1.37
2019-01-27T08:55:21.415Z,1.07
2019-01-27T08:57:49.799Z,0.97
2019-01-27T09:00:20.852Z,1.40
2019-01-27T09:02:56.744Z,0.53
2019-01-27T09:05:29.624Z,0.90
2019-01-27T09:08:08.260Z,1.07
2019-01-27T09:10:41.017Z,0.93
2019-01-27T09:13:19.558Z,0.93
2019-01-27T09:16:05.444Z,1.37
2019-01-27T09:18:50.436Z,1.17
2019-01-27T09:21:20.363Z,1.10
2019-01-27T09:23:55.997Z,0.80
2019-01-27T09:26:25.921Z,1.50
2019-01-27T09:28:55.820Z,2.63
2019-01-27T09:31:40.815Z,0.97
2019-01-27T09:34:13.236Z,0.60
2019-01-27T09:36:54.248Z,0.50
2019-01-27T09:39:27.158Z,0.70
2019-01-27T09:42:03.039Z,1.40
2019-01-27T09:44:35.600Z,1.13
2019-01-27T09:47:08.247Z,1.00
2019-01-27T09:49:40.565Z,0.80
2019-01-27T09:52:13.478Z,1.77
2019-01-27T09:54:59.627Z,0.70
2019-01-27T09:57:29.617Z,0.60
2019-01-27T10:00:05.704Z,0.30
2019-01-27T10:02:47.766Z,1.37
2019-01-27T10:05:26.391Z,1.33
2019-01-27T10:08:05.295Z,0.80
2019-01-27T10:10:35.602Z,1.37
2019-01-27T10:13:08.418Z,0.70
2019-01-27T10:15:38.401Z,1.83
2019-01-27T10:18:20.460Z,1.13
2019-01-27T10:20:53.258Z,1.23
2019-01-27T10:23:23.296Z,2.17
2019-01-27T10:26:02.097Z,1.13
2019-01-27T10:28:32.033Z,3.50
2019-01-27T10:31:04.880Z,2.83
2019-01-27T10:33:35.215Z,0.60
2019-01-27T10:36:17.208Z,2.60
2019-01-27T10:38:49.979Z,1.00
2019-01-27T10:41:25.678Z,0.63
2019-01-27T10:44:04.541Z,0.67
2019-01-27T10:46:50.560Z,1.47
2019-01-27T10:49:35.968Z,7.97
2019-01-27T10:52:22.330Z,3.47
2019-01-27T10:54:52.351Z,2.30
2019-01-27T10:57:25.163Z,0.60
2019-01-27T10:59:58.554Z,2.07
2019-01-27T11:02:28.553Z,0.80
2019-01-27T11:04:58.565Z,1.00
2019-01-27T11:07:37.334Z,3.03
2019-01-27T11:10:15.839Z,1.67
2019-01-27T11:12:45.719Z,1.40
2019-01-27T11:15:15.640Z,2.47
2019-01-27T11:17:45.798Z,3.70
2019-01-27T11:20:25.019Z,1.27
2019-01-27T11:23:11.148Z,2.77
2019-01-27T11:25:44.142Z,2.90
2019-01-27T11:28:19.892Z,2.13
2019-01-27T11:30:52.571Z,0.50
2019-01-27T11:33:25.150Z,2.00
2019-01-27T11:35:55.115Z,1.33
2019-01-27T11:38:25.148Z,1.27
2019-01-27T11:40:57.965Z,0.70
2019-01-27T11:43:30.877Z,1.70
2019-01-27T11:46:09.890Z,0.40
2019-01-27T11:48:39.829Z,0.80
2019-01-27T11:51:09.798Z,1.07
2019-01-27T11:53:38.090Z,0.50
2019-01-27T11:56:06.352Z,1.10
2019-01-27T11:58:34.634Z,0.70
2019-01-27T12:01:03.655Z,1.90
2019-01-27T12:03:31.961Z,1.77
2019-01-27T12:06:00.269Z,1.23
2019-01-27T12:08:28.534Z,6.20
2019-01-27T12:10:56.835Z,5.07
2019-01-27T12:13:25.100Z,5.87
2019-01-27T12:15:53.429Z,4.50
2019-01-27T12:18:21.703Z,7.33
2019-01-27T12:20:50.002Z,3.03
2019-01-27T12:23:18.253Z,1.10
2019-01-27T12:25:46.569Z,1.07
2019-01-27T12:28:14.885Z,1.57
2019-01-27T12:30:43.208Z,2.60
2019-01-27T12:33:11.465Z,1.03
2019-01-27T12:35:39.838Z,1.27
2019-01-27T12:38:08.134Z,2.63
2019-01-27T12:40:36.428Z,1.57
2019-01-27T12:43:04.708Z,3.00
2019-01-27T12:45:32.995Z,1.07
2019-01-27T12:48:01.228Z,1.63
2019-01-27T12:50:29.530Z,3.37
2019-01-27T12:52:57.933Z,1.67
2019-01-27T12:55:26.279Z,1.47
2019-01-27T12:57:54.569Z,1.03
2019-01-27T13:00:31.824Z,2.07
2019-01-27T13:03:00.159Z,1.93
2019-01-27T13:05:28.576Z,2.10
2019-01-27T13:07:56.868Z,4.37
2019-01-27T13:10:25.135Z,1.33
2019-01-27T13:12:53.464Z,1.23
2019-01-27T13:15:22.346Z,1.13
2019-01-27T13:17:50.740Z,1.30
2019-01-27T13:20:19.043Z,1.70
2019-01-27T13:22:47.392Z,1.60
2019-01-27T13:25:17.250Z,3.13
2019-01-27T13:27:45.544Z,1.07
2019-01-27T13:30:19.004Z,1.47
2019-01-27T13:32:47.510Z,1.93
2019-01-27T13:35:15.912Z,1.33
2019-01-27T13:37:44.214Z,1.00
2019-01-27T13:40:15.665Z,1.10
2019-01-27T13:42:44.141Z,1.93
2019-01-27T13:45:27.361Z,1.73
2019-01-27T13:47:58.821Z,2.97
2019-01-27T13:50:25.738Z,1.47
2019-01-27T13:52:54.112Z,0.87
2019-01-27T13:55:28.754Z,1.33
2019-01-27T13:57:57.115Z,1.20
2019-01-27T14:00:30.384Z,1.17
2019-01-27T14:02:58.679Z,1.97
2019-01-27T14:05:26.983Z,2.77
2019-01-27T14:07:55.289Z,0.63
2019-01-27T14:10:28.053Z,0.73
2019-01-27T14:12:56.519Z,0.47
2019-01-27T14:15:27.505Z,0.93
2019-01-27T14:17:55.836Z,1.03
2019-01-27T14:20:24.153Z,2.17
2019-01-27T14:22:52.497Z,1.43
2019-01-27T14:25:23.109Z,2.37
2019-01-27T14:27:52.145Z,1.17
2019-01-27T14:30:22.858Z,0.97
2019-01-27T14:32:51.182Z,2.63
2019-01-27T14:35:19.473Z,4.97
2019-01-27T14:37:47.750Z,2.73
2019-01-27T14:40:19.220Z,2.67
2019-01-27T14:42:47.619Z,3.23
2019-01-27T14:45:18.297Z,1.13
2019-01-27T14:47:46.563Z,1.80
2019-01-27T14:50:17.458Z,1.83
2019-01-27T14:52:45.724Z,3.40
2019-01-27T14:55:16.613Z,2.23
2019-01-27T14:57:45.030Z,1.47
2019-01-27T15:00:16.810Z,2.90
2019-01-27T15:02:45.110Z,2.97
2019-01-27T15:05:13.806Z,6.60
2019-01-27T15:07:42.208Z,3.80
2019-01-27T15:10:18.368Z,5.33
2019-01-27T15:12:46.678Z,7.77
2019-01-27T15:15:20.054Z,11.97
2019-01-27T15:17:48.708Z,4.63
2019-01-27T15:20:20.053Z,5.43
2019-01-27T15:22:48.536Z,5.83
2019-01-27T15:25:16.949Z,7.40
2019-01-27T15:27:45.244Z,7.03
2019-01-27T15:30:24.693Z,8.60
2019-01-27T15:32:53.059Z,2.20
2019-01-27T15:35:21.412Z,1.43
2019-01-27T15:37:49.830Z,4.00
2019-01-27T15:40:18.094Z,2.27
2019-01-27T15:42:46.387Z,2.07
2019-01-27T15:45:24.910Z,1.00
2019-01-27T15:47:53.243Z,9.13
2019-01-27T15:50:27.232Z,5.60
2019-01-27T15:52:55.545Z,3.47
2019-01-27T15:55:23.884Z,5.03
2019-01-27T15:57:52.323Z,3.73
2019-01-27T16:00:23.109Z,2.03
2019-01-27T16:02:51.439Z,2.03
2019-01-27T16:05:21.456Z,7.47
2019-01-27T16:07:50.049Z,3.97
2019-01-27T16:10:21.648Z,2.80
2019-01-27T16:12:50.033Z,4.20
2019-01-27T16:15:32.817Z,2.77
2019-01-27T16:18:01.195Z,3.67
2019-01-27T16:20:29.521Z,2.87
2019-01-27T16:23:05.727Z,2.33
2019-01-27T16:25:34.088Z,5.10
2019-01-27T16:28:02.528Z,2.60
2019-01-27T16:30:48.525Z,2.40
2019-01-27T16:33:21.179Z,4.40
2019-01-27T16:35:49.409Z,5.30
2019-01-27T16:38:17.771Z,2.80
2019-01-27T16:40:46.144Z,1.83
2019-01-27T16:43:14.455Z,1.47
2019-01-27T16:45:42.799Z,1.30
2019-01-27T16:48:11.070Z,1.50
2019-01-27T16:50:39.348Z,3.27
2019-01-27T16:53:07.670Z,1.50
2019-01-27T16:55:35.974Z,2.00
2019-01-27T16:58:04.217Z,4.57
2019-01-27T17:00:32.874Z,2.83
2019-01-27T17:03:01.140Z,2.83
2019-01-27T17:05:29.441Z,2.13
2019-01-27T17:07:57.699Z,4.70
2019-01-27T17:10:27.108Z,1.93
2019-01-27T17:12:55.377Z,2.00
2019-01-27T17:15:23.743Z,1.33
2019-01-27T17:17:52.010Z,1.07
2019-01-27T17:20:25.619Z,2.77
2019-01-27T17:22:51.429Z,1.30
2019-01-27T17:25:19.814Z,2.27
2019-01-27T17:27:48.135Z,2.50
2019-01-27T17:30:24.746Z,4.40
2019-01-27T17:32:53.030Z,2.20
2019-01-27T17:35:21.568Z,4.40
2019-01-27T17:37:49.930Z,3.10
2019-01-27T17:40:19.241Z,1.80
2019-01-27T17:42:47.660Z,2.27
2019-01-27T17:45:20.956Z,3.47
2019-01-27T17:47:49.310Z,1.20
2019-01-27T17:50:18.865Z,0.80
2019-01-27T17:52:47.259Z,4.00
2019-01-27T17:55:25.888Z,1.47
2019-01-27T17:57:58.584Z,2.00
2019-01-27T18:00:43.290Z,2.63
2019-01-27T18:03:22.290Z,1.37
2019-01-27T18:06:01.334Z,1.67
2019-01-27T18:08:31.283Z,2.13
2019-01-27T18:11:16.140Z,1.83
2019-01-27T18:13:44.811Z,2.00
2019-01-27T18:16:13.316Z,1.37
2019-01-27T18:18:41.684Z,4.57
2019-01-27T18:21:09.961Z,5.20
2019-01-27T18:23:38.406Z,3.00
2019-01-27T18:26:06.729Z,7.83
2019-01-27T18:28:35.098Z,6.00
2019-01-27T18:31:03.433Z,4.60
2019-01-27T18:33:31.814Z,4.60
2019-01-27T18:36:00.080Z,10.70
2019-01-27T18:38:28.391Z,12.57
2019-01-27T18:40:56.691Z,7.57
2019-01-27T18:43:25.003Z,6.37
2019-01-27T18:45:53.316Z,7.33
2019-01-27T18:48:21.672Z,7.43
2019-01-27T18:50:49.990Z,10.80
2019-01-27T18:53:19.913Z,14.17
2019-01-27T18:55:55.857Z,6.40
2019-01-27T18:58:31.805Z,4.73
2019-01-27T19:01:07.493Z,7.13
2019-01-27T19:03:37.471Z,13.57
2019-01-27T19:06:16.715Z,12.73
2019-01-27T19:08:52.658Z,8.70
2019-01-27T19:11:22.578Z,18.77
2019-01-27T19:13:52.508Z,10.67
2019-01-27T19:16:34.281Z,7.33
2019-01-27T19:19:20.328Z,12.27
2019-01-27T19:21:50.320Z,9.60
2019-01-27T19:24:20.277Z,13.10
2019-01-27T19:26:53.143Z,9.57
2019-01-27T19:29:39.314Z,13.57
2019-01-27T19:32:12.009Z,17.90
2019-01-27T19:34:58.103Z,15.57
2019-01-27T19:37:28.037Z,16.50
2019-01-27T19:40:07.030Z,16.07
2019-01-27T19:42:43.111Z,16.40
2019-01-27T19:45:16.108Z,23.20
2019-01-27T19:47:54.870Z,24.80
2019-01-27T19:50:36.810Z,16.23
2019-01-27T19:53:12.843Z,20.03
2019-01-27T19:55:48.755Z,21.27
2019-01-27T19:58:36.460Z,27.20
2019-01-27T20:01:15.373Z,23.57
2019-01-27T20:03:48.043Z,15.40
2019-01-27T20:06:20.765Z,18.47
2019-01-27T20:09:02.656Z,17.77
2019-01-27T20:11:41.262Z,12.37
2019-01-27T20:14:13.932Z,17.87
2019-01-27T20:16:46.824Z,15.73
2019-01-27T20:19:34.814Z,10.60
2019-01-27T20:22:10.878Z,11.17
2019-01-27T20:24:40.805Z,14.33
2019-01-27T20:27:10.729Z,12.53
2019-01-27T20:29:40.669Z,6.97
2019-01-27T20:32:10.574Z,8.80
2019-01-27T20:34:43.237Z,9.90
2019-01-27T20:37:19.333Z,8.27
2019-01-27T20:40:01.313Z,9.53
2019-01-27T20:42:36.834Z,7.53
2019-01-27T20:45:10.056Z,12.07
2019-01-27T20:47:56.023Z,11.60
2019-01-27T20:50:31.843Z,9.97
2019-01-27T20:53:07.545Z,11.30
2019-01-27T20:55:43.565Z,13.40
2019-01-27T20:58:13.559Z,12.57
2019-01-27T21:00:46.276Z,8.67
2019-01-27T21:03:19.234Z,9.30
2019-01-27T21:05:49.171Z,12.57
2019-01-27T21:08:19.071Z,9.90
2019-01-27T21:10:51.685Z,12.27
2019-01-27T21:13:21.689Z,11.67
2019-01-27T21:15:51.629Z,11.77
2019-01-27T21:18:21.554Z,9.37
2019-01-27T21:20:53.689Z,8.87
2019-01-27T21:23:19.947Z,12.93
2019-01-27T21:25:48.265Z,12.17
2019-01-27T21:28:16.606Z,11.57
2019-01-27T21:30:44.874Z,9.20
2019-01-27T21:33:13.160Z,11.10
2019-01-27T21:35:41.417Z,9.10
2019-01-27T21:38:09.708Z,13.17
2019-01-27T21:40:37.992Z,11.77
2019-01-27T21:43:06.304Z,15.83
2019-01-27T21:45:34.618Z,12.23
2019-01-27T21:48:02.868Z,13.00
2019-01-27T21:50:31.257Z,17.37
2019-01-27T21:52:59.768Z,14.30
2019-01-27T21:55:28.234Z,15.87
2019-01-27T21:57:56.549Z,14.30
2019-01-27T22:00:24.834Z,15.93
2019-01-27T22:02:53.109Z,14.90
2019-01-27T22:05:21.379Z,16.93
2019-01-27T22:07:49.642Z,19.23
2019-01-27T22:10:17.911Z,18.50
2019-01-27T22:12:46.210Z,32.73
2019-01-27T22:15:14.529Z,16.00
2019-01-27T22:17:42.859Z,16.60
2019-01-27T22:20:13.314Z,13.70
2019-01-27T22:22:41.719Z,12.67
2019-01-27T22:25:12.045Z,9.90
2019-01-27T22:27:40.334Z,16.60
2019-01-27T22:30:17.084Z,11.27
2019-01-27T22:32:45.374Z,10.97
2019-01-27T22:35:13.720Z,12.30
2019-01-27T22:37:41.975Z,17.30
2019-01-27T22:40:12.695Z,15.57
2019-01-27T22:42:40.989Z,11.57
2019-01-27T22:45:14.103Z,12.20
2019-01-27T22:47:42.401Z,14.47
2019-01-27T22:50:13.304Z,13.27
2019-01-27T22:52:41.640Z,12.17
2019-01-27T22:55:10.563Z,14.23
2019-01-27T22:57:38.964Z,14.93
2019-01-27T23:00:20.871Z,15.27
2019-01-27T23:02:49.160Z,17.50
2019-01-27T23:05:17.422Z,14.80
2019-01-27T23:07:45.755Z,15.00
2019-01-27T23:10:14.025Z,16.57
2019-01-27T23:12:42.304Z,17.40
2019-01-27T23:15:11.069Z,12.73
2019-01-27T23:17:39.348Z,16.50
2019-01-27T23:20:07.943Z,16.33
2019-01-27T23:22:36.224Z,15.53
2019-01-27T23:25:06.598Z,18.63
2019-01-27T23:27:34.888Z,14.30
2019-01-27T23:30:04.769Z,20.53
2019-01-27T23:32:33.045Z,17.70
2019-01-27T23:35:01.321Z,18.80
2019-01-27T23:37:29.630Z,20.23
2019-01-27T23:39:57.938Z,19.03
2019-01-27T23:42:26.225Z,24.57
2019-01-27T23:44:54.489Z,15.23
2019-01-27T23:47:22.790Z,18.57
2019-01-27T23:49:51.030Z,15.70
2019-01-27T23:52:19.333Z,16.30
2019-01-27T23:54:48.298Z,13.50
2019-01-27T23:57:16.669Z,15.33
2019-01-27T23:59:45.028Z,12.87
